createdAt,value
2022-11-27T00:01:23.614Z,91.28
2022-11-27T00:03:51.421Z,91.11
2022-11-27T00:06:20.814Z,90.84
2022-11-27T00:08:48.378Z,90.26
2022-11-27T00:11:18.141Z,89.87
2022-11-27T00:13:46.109Z,89.65
2022-11-27T00:16:14.450Z,89.49
2022-11-27T00:18:43.385Z,89.46
2022-11-27T00:21:16.735Z,89.01
2022-11-27T00:23:44.140Z,88.79
2022-11-27T00:26:11.732Z,88.34
2022-11-27T00:28:39.229Z,88.50
2022-11-27T00:31:12.423Z,88.09
2022-11-27T00:33:39.768Z,87.72
2022-11-27T00:36:08.206Z,87.17
2022-11-27T00:38:38.951Z,86.89
2022-11-27T00:41:19.472Z,86.78
2022-11-27T00:43:46.959Z,86.35
2022-11-27T00:46:15.428Z,86.06
2022-11-27T00:48:43.236Z,86.02
2022-11-27T00:51:14.012Z,85.97
2022-11-27T00:53:41.166Z,85.86
2022-11-27T00:56:08.633Z,86.00
2022-11-27T00:58:35.805Z,85.79
2022-11-27T01:01:07.496Z,86.00
2022-11-27T01:03:35.707Z,85.84
2022-11-27T01:06:07.179Z,85.85
2022-11-27T01:08:34.725Z,85.98
2022-11-27T01:11:02.519Z,85.85
2022-11-27T01:13:32.531Z,85.83
2022-11-27T01:16:17.946Z,85.93
2022-11-27T01:18:46.833Z,86.02
2022-11-27T01:21:16.337Z,86.12
2022-11-27T01:23:43.678Z,86.23
2022-11-27T01:29:12.033Z,86.32
2022-11-27T01:31:39.283Z,86.86
2022-11-27T01:34:11.861Z,87.09
2022-11-27T01:36:38.972Z,87.27
2022-11-27T01:39:05.936Z,87.30
2022-11-27T01:41:39.990Z,87.95
2022-11-27T01:44:25.401Z,87.70
2022-11-27T01:47:00.536Z,87.89
2022-11-27T01:49:39.895Z,87.83
2022-11-27T01:52:24.279Z,87.89
2022-11-27T01:55:06.317Z,87.69
2022-11-27T01:57:43.966Z,87.79
2022-11-27T02:00:14.269Z,87.50
2022-11-27T02:02:42.402Z,87.40
2022-11-27T02:05:10.858Z,87.15
2022-11-27T02:07:38.240Z,87.01
2022-11-27T02:10:06.807Z,87.07
2022-11-27T02:12:56.648Z,87.06
2022-11-27T02:15:37.258Z,87.01
2022-11-27T02:18:07.110Z,86.86
2022-11-27T02:20:59.361Z,86.63
2022-11-27T02:23:52.285Z,86.50
2022-11-27T02:26:31.518Z,86.56
2022-11-27T02:28:58.448Z,86.83
2022-11-27T02:31:45.874Z,87.70
2022-11-27T02:35:10.321Z,88.06
2022-11-27T02:37:46.762Z,88.77
2022-11-27T02:40:39.011Z,89.33
2022-11-27T02:43:11.618Z,89.79
2022-11-27T02:45:48.256Z,90.10
2022-11-27T02:48:18.414Z,89.85
2022-11-27T02:50:48.298Z,89.72
2022-11-27T02:53:21.203Z,89.41
2022-11-27T02:55:50.585Z,88.96
2022-11-27T02:58:22.154Z,88.94
2022-11-27T03:00:50.493Z,89.15
2022-11-27T03:03:22.273Z,89.32
2022-11-27T03:05:52.541Z,89.55
2022-11-27T03:08:39.127Z,89.61
2022-11-27T03:11:09.974Z,89.33
2022-11-27T03:13:47.246Z,89.30
2022-11-27T03:16:49.765Z,90.15
2022-11-27T03:19:19.547Z,90.42
2022-11-27T03:21:48.626Z,90.35
2022-11-27T03:24:15.609Z,90.44
2022-11-27T03:26:43.759Z,90.20
2022-11-27T03:29:36.608Z,89.99
2022-11-27T03:32:04.860Z,89.76
2022-11-27T03:34:32.721Z,89.54
2022-11-27T03:37:00.900Z,89.32
2022-11-27T03:39:29.617Z,89.25
2022-11-27T03:42:15.667Z,89.29
2022-11-27T03:44:53.629Z,89.16
2022-11-27T03:47:29.725Z,89.08
2022-11-27T03:50:09.024Z,89.00
2022-11-27T03:52:43.117Z,88.94
2022-11-27T03:55:25.861Z,88.85
2022-11-27T03:57:57.480Z,89.01
2022-11-27T04:00:33.100Z,88.57
2022-11-27T04:03:00.316Z,88.95
2022-11-27T04:05:27.254Z,89.15
2022-11-27T04:07:54.155Z,88.89
2022-11-27T04:10:21.697Z,89.54
2022-11-27T04:12:48.490Z,89.83
2022-11-27T04:15:15.502Z,89.75
2022-11-27T04:17:42.407Z,89.42
2022-11-27T04:20:12.802Z,89.72
2022-11-27T04:22:40.025Z,89.98
2022-11-27T04:25:07.228Z,89.87
2022-11-27T04:27:34.245Z,89.42
2022-11-27T04:30:01.239Z,88.83
2022-11-27T04:32:30.440Z,88.51
2022-11-27T04:34:57.359Z,88.26
2022-11-27T04:37:24.235Z,87.96
2022-11-27T04:39:51.182Z,88.14
2022-11-27T04:42:26.163Z,88.63
2022-11-27T04:44:58.106Z,88.62
2022-11-27T04:47:25.466Z,89.18
2022-11-27T04:49:52.450Z,89.24
2022-11-27T04:52:19.609Z,89.92
2022-11-27T04:54:46.562Z,89.75
2022-11-27T04:57:13.593Z,89.93
2022-11-27T04:59:41.197Z,90.12
2022-11-27T05:02:08.253Z,89.92
2022-11-27T05:04:35.228Z,89.73
2022-11-27T05:07:02.144Z,89.33
2022-11-27T05:09:29.102Z,89.10
2022-11-27T05:11:56.177Z,88.99
2022-11-27T05:14:28.944Z,88.87
2022-11-27T05:16:58.592Z,88.81
2022-11-27T05:19:28.430Z,88.41
2022-11-27T05:21:56.382Z,88.19
2022-11-27T05:24:25.990Z,88.27
2022-11-27T05:26:53.083Z,88.37
2022-11-27T05:29:20.585Z,88.09
2022-11-27T05:31:47.926Z,87.96
2022-11-27T05:34:15.183Z,87.81
2022-11-27T05:36:42.796Z,87.86
2022-11-27T05:39:11.338Z,87.81
2022-11-27T05:41:41.307Z,87.74
2022-11-27T05:44:13.608Z,87.70
2022-11-27T05:46:43.863Z,87.58
2022-11-27T05:49:13.949Z,87.70
2022-11-27T05:51:43.270Z,88.01
2022-11-27T05:54:13.522Z,87.91
2022-11-27T05:56:40.394Z,87.87
2022-11-27T05:59:07.328Z,87.71
2022-11-27T06:01:34.445Z,87.76
2022-11-27T06:04:01.564Z,87.66
2022-11-27T06:06:28.628Z,87.42
2022-11-27T06:08:55.554Z,87.48
2022-11-27T06:11:22.954Z,87.23
2022-11-27T06:13:50.370Z,87.19
2022-11-27T06:16:22.934Z,86.99
2022-11-27T06:18:51.916Z,86.82
2022-11-27T06:21:20.087Z,86.61
2022-11-27T06:23:47.078Z,86.55
2022-11-27T06:26:20.714Z,86.36
2022-11-27T06:28:48.700Z,86.06
2022-11-27T06:31:20.755Z,86.12
2022-11-27T06:33:49.144Z,85.85
2022-11-27T06:36:17.506Z,85.68
2022-11-27T06:38:45.220Z,85.84
2022-11-27T06:41:15.297Z,85.43
2022-11-27T06:43:42.798Z,84.83
2022-11-27T06:46:15.482Z,84.62
2022-11-27T06:48:44.650Z,84.41
2022-11-27T06:51:14.265Z,84.31
2022-11-27T06:53:41.910Z,84.43
2022-11-27T06:56:20.148Z,84.19
2022-11-27T06:58:47.143Z,84.16
2022-11-27T07:01:16.610Z,83.94
2022-11-27T07:03:44.633Z,83.28
2022-11-27T07:06:15.426Z,83.30
2022-11-27T07:08:43.156Z,83.36
2022-11-27T07:11:19.353Z,83.74
2022-11-27T07:13:47.428Z,83.25
2022-11-27T07:16:15.424Z,82.88
2022-11-27T07:18:51.273Z,82.93
2022-11-27T07:21:18.145Z,82.54
2022-11-27T07:23:45.913Z,82.16
2022-11-27T07:26:15.421Z,81.62
2022-11-27T07:28:46.031Z,81.36
2022-11-27T07:31:21.067Z,80.88
2022-11-27T07:33:48.429Z,80.71
2022-11-27T07:36:25.080Z,80.91
2022-11-27T07:38:52.281Z,80.83
2022-11-27T07:41:19.152Z,80.72
2022-11-27T07:43:46.903Z,80.33
2022-11-27T07:46:24.488Z,79.86
2022-11-27T07:48:51.989Z,79.54
2022-11-27T07:51:20.797Z,79.19
2022-11-27T07:53:48.694Z,79.01
2022-11-27T07:56:16.874Z,78.70
2022-11-27T07:58:44.704Z,78.27
2022-11-27T08:01:18.692Z,78.36
2022-11-27T08:03:46.388Z,78.57
2022-11-27T08:06:15.976Z,78.63
2022-11-27T08:08:47.660Z,78.31
2022-11-27T08:11:24.668Z,77.95
2022-11-27T08:14:05.459Z,77.72
2022-11-27T08:16:35.012Z,77.90
2022-11-27T08:19:02.517Z,77.75
2022-11-27T08:21:30.082Z,77.32
2022-11-27T08:23:58.215Z,77.44
2022-11-27T08:26:27.640Z,77.82
2022-11-27T08:28:54.848Z,77.84
2022-11-27T08:31:23.305Z,78.08
2022-11-27T08:33:50.712Z,77.88
2022-11-27T08:36:18.241Z,77.96
2022-11-27T08:38:46.560Z,77.73
2022-11-27T08:41:13.695Z,77.55
2022-11-27T08:43:40.829Z,77.74
2022-11-27T08:46:08.472Z,77.61
2022-11-27T08:48:35.650Z,77.24
2022-11-27T08:51:11.935Z,76.95
2022-11-27T08:53:39.485Z,76.86
2022-11-27T08:56:13.924Z,76.87
2022-11-27T08:58:41.291Z,77.26
2022-11-27T09:01:11.003Z,77.62
2022-11-27T09:03:38.717Z,77.56
2022-11-27T09:06:11.117Z,77.32
2022-11-27T09:08:39.721Z,77.19
2022-11-27T09:11:07.388Z,77.15
2022-11-27T09:13:37.173Z,77.33
2022-11-27T09:16:05.776Z,76.92
2022-11-27T09:18:33.340Z,76.85
2022-11-27T09:21:02.696Z,76.77
2022-11-27T09:23:30.146Z,77.40
2022-11-27T09:26:05.093Z,76.65
2022-11-27T09:28:33.262Z,76.76
2022-11-27T09:31:02.021Z,76.32
2022-11-27T09:33:30.860Z,76.12
2022-11-27T09:35:57.997Z,75.58
2022-11-27T09:38:25.066Z,75.33
2022-11-27T09:41:00.412Z,75.23
2022-11-27T09:43:34.581Z,75.00
2022-11-27T09:46:09.322Z,74.33
2022-11-27T09:48:42.533Z,74.50
2022-11-27T09:51:20.059Z,74.22
2022-11-27T09:53:58.665Z,74.77
2022-11-27T09:56:35.218Z,74.29
2022-11-27T09:59:08.709Z,74.92
2022-11-27T10:01:46.203Z,74.54
2022-11-27T10:04:19.049Z,73.83
2022-11-27T10:07:07.167Z,73.79
2022-11-27T10:09:55.431Z,73.85
2022-11-27T10:12:40.735Z,73.17
2022-11-27T10:15:13.947Z,72.68
2022-11-27T10:17:53.821Z,72.67
2022-11-27T10:20:47.669Z,72.60
2022-11-27T10:23:14.557Z,72.17
2022-11-27T10:25:47.972Z,71.96
2022-11-27T10:28:30.266Z,72.08
2022-11-27T10:31:11.838Z,72.21
2022-11-27T10:33:45.182Z,71.74
2022-11-27T10:36:19.085Z,70.23
2022-11-27T10:38:48.284Z,70.25
2022-11-27T10:44:30.866Z,70.79
2022-11-27T10:47:15.425Z,70.89
2022-11-27T10:50:01.898Z,71.30
2022-11-27T10:52:30.935Z,70.94
2022-11-27T10:55:02.671Z,71.05
2022-11-27T10:57:44.134Z,70.68
2022-11-27T11:00:28.266Z,69.99
2022-11-27T11:03:04.201Z,69.70
2022-11-27T11:05:45.500Z,69.75
2022-11-27T11:08:21.383Z,69.47
2022-11-27T11:10:59.908Z,69.22
2022-11-27T11:13:32.381Z,69.42
2022-11-27T11:15:59.391Z,69.30
2022-11-27T11:18:32.426Z,68.56
2022-11-27T11:21:03.012Z,68.08
2022-11-27T11:23:36.247Z,67.41
2022-11-27T11:26:14.687Z,67.37
2022-11-27T11:28:50.620Z,66.76
2022-11-27T11:31:21.284Z,66.68
2022-11-27T11:34:21.053Z,65.89
2022-11-27T11:37:04.426Z,65.62
2022-11-27T11:39:44.529Z,65.36
2022-11-27T11:42:23.637Z,65.18
2022-11-27T11:45:04.347Z,65.48
2022-11-27T11:47:31.807Z,65.52
2022-11-27T11:49:59.287Z,65.52
2022-11-27T11:52:59.617Z,65.76
2022-11-27T11:55:34.677Z,65.58
2022-11-27T11:58:31.103Z,65.25
2022-11-27T12:01:26.559Z,65.02
2022-11-27T12:04:18.952Z,64.69
2022-11-27T12:07:07.846Z,64.27
2022-11-27T12:10:06.221Z,64.37
2022-11-27T12:12:57.024Z,64.51
2022-11-27T12:15:46.582Z,64.18
2022-11-27T12:18:41.665Z,64.38
2022-11-27T12:21:17.993Z,64.04
2022-11-27T12:23:57.964Z,63.91
2022-11-27T12:26:37.119Z,64.19
2022-11-27T12:29:38.567Z,63.69
2022-11-27T12:32:28.457Z,63.51
2022-11-27T12:35:24.754Z,63.98
2022-11-27T12:38:22.790Z,64.20
2022-11-27T12:41:27.361Z,64.29
2022-11-27T12:44:00.132Z,64.66
2022-11-27T12:46:27.164Z,64.42
2022-11-27T12:49:03.731Z,64.90
2022-11-27T12:51:43.412Z,65.00
2022-11-27T12:54:15.538Z,65.32
2022-11-27T12:56:49.792Z,66.06
2022-11-27T12:59:23.292Z,65.84
2022-11-27T13:02:01.732Z,65.91
2022-11-27T13:05:02.649Z,66.07
2022-11-27T13:07:53.796Z,66.13
2022-11-27T13:10:32.088Z,65.89
2022-11-27T13:13:34.303Z,65.94
2022-11-27T13:16:07.673Z,66.07
2022-11-27T13:18:43.964Z,66.36
2022-11-27T13:21:17.419Z,66.44
2022-11-27T13:23:44.794Z,66.20
2022-11-27T13:26:26.657Z,66.29
2022-11-27T13:28:59.425Z,66.50
2022-11-27T13:31:31.726Z,66.27
2022-11-27T13:34:02.580Z,66.46
2022-11-27T13:37:02.048Z,66.46
2022-11-27T13:39:35.447Z,66.59
2022-11-27T13:42:11.774Z,66.36
2022-11-27T13:44:44.320Z,66.33
2022-11-27T13:47:16.726Z,66.26
2022-11-27T13:49:43.938Z,66.16
2022-11-27T13:52:14.304Z,66.34
2022-11-27T13:55:07.764Z,66.48
2022-11-27T13:57:34.945Z,66.59
2022-11-27T14:00:12.140Z,66.55
2022-11-27T14:02:44.836Z,66.41
2022-11-27T14:05:18.518Z,66.60
2022-11-27T14:07:51.991Z,66.36
2022-11-27T14:10:24.676Z,66.24
2022-11-27T14:13:08.593Z,66.34
2022-11-27T14:15:37.752Z,66.43
2022-11-27T14:18:17.990Z,66.45
2022-11-27T14:20:52.508Z,66.57
2022-11-27T14:23:48.160Z,66.41
2022-11-27T14:26:15.660Z,66.39
2022-11-27T14:28:45.377Z,66.08
2022-11-27T14:31:28.773Z,66.06
2022-11-27T14:36:43.839Z,65.75
2022-11-27T14:39:24.034Z,65.60
2022-11-27T14:42:05.688Z,65.59
2022-11-27T14:44:33.221Z,65.56
2022-11-27T14:47:06.763Z,65.45
2022-11-27T14:49:34.917Z,65.26
2022-11-27T14:52:06.835Z,64.96
2022-11-27T14:54:39.301Z,65.02
2022-11-27T14:57:11.107Z,65.20
2022-11-27T14:59:40.048Z,64.57
2022-11-27T15:02:07.317Z,63.80
2022-11-27T15:04:39.807Z,63.50
2022-11-27T15:07:18.783Z,63.16
2022-11-27T15:09:49.913Z,62.98
2022-11-27T15:12:21.302Z,62.89
2022-11-27T15:15:00.199Z,62.66
2022-11-27T15:17:34.284Z,62.78
2022-11-27T15:20:04.195Z,62.31
2022-11-27T15:22:33.423Z,62.19
2022-11-27T15:25:06.058Z,61.81
2022-11-27T15:27:45.564Z,61.96
2022-11-27T15:30:18.066Z,62.43
2022-11-27T15:32:51.667Z,62.40
2022-11-27T15:35:29.259Z,62.47
2022-11-27T15:37:58.146Z,62.55
2022-11-27T15:40:28.499Z,62.48
2022-11-27T15:42:55.399Z,62.59
2022-11-27T15:45:23.388Z,63.02
2022-11-27T15:47:58.210Z,63.14
2022-11-27T15:50:25.376Z,63.45
2022-11-27T15:52:52.521Z,63.26
2022-11-27T15:55:19.847Z,63.09
2022-11-27T15:57:47.079Z,63.35
2022-11-27T16:00:15.103Z,63.54
2022-11-27T16:02:42.315Z,63.21
2022-11-27T16:05:09.484Z,63.21
2022-11-27T16:07:36.749Z,63.45
2022-11-27T16:10:04.061Z,63.62
2022-11-27T16:12:31.162Z,63.54
2022-11-27T16:14:59.417Z,63.58
2022-11-27T16:17:26.463Z,63.79
2022-11-27T16:19:53.601Z,63.68
2022-11-27T16:22:20.651Z,63.78
2022-11-27T16:24:47.618Z,63.62
2022-11-27T16:27:14.560Z,63.67
2022-11-27T16:29:41.725Z,63.49
2022-11-27T16:32:09.170Z,63.33
2022-11-27T16:34:37.004Z,63.08
2022-11-27T16:37:03.968Z,63.15
2022-11-27T16:39:31.327Z,63.08
2022-11-27T16:41:58.466Z,62.70
2022-11-27T16:44:25.706Z,62.82
2022-11-27T16:46:53.768Z,63.47
2022-11-27T16:49:21.888Z,64.16
2022-11-27T16:51:50.213Z,64.83
2022-11-27T16:54:18.553Z,65.59
2022-11-27T16:56:46.519Z,66.25
2022-11-27T16:59:15.083Z,66.70
2022-11-27T17:01:44.234Z,67.14
2022-11-27T17:04:20.099Z,67.40
2022-11-27T17:06:48.962Z,67.81
2022-11-27T17:09:16.592Z,68.07
2022-11-27T17:11:48.487Z,68.32
2022-11-27T17:14:16.434Z,68.24
2022-11-27T17:16:43.625Z,68.97
2022-11-27T17:19:15.567Z,69.00
2022-11-27T17:21:44.501Z,69.25
2022-11-27T17:24:15.214Z,69.48
2022-11-27T17:26:46.394Z,69.76
2022-11-27T17:29:16.869Z,70.09
2022-11-27T17:31:44.643Z,70.60
2022-11-27T17:34:14.224Z,70.28
2022-11-27T17:36:43.201Z,70.75
2022-11-27T17:39:15.196Z,70.76
2022-11-27T17:41:44.891Z,71.48
2022-11-27T17:44:11.795Z,72.06
2022-11-27T17:46:40.001Z,72.65
2022-11-27T17:49:08.157Z,73.65
2022-11-27T17:51:36.705Z,73.35
2022-11-27T17:54:05.487Z,72.78
2022-11-27T17:56:33.719Z,72.63
2022-11-27T17:59:01.814Z,72.48
2022-11-27T18:01:30.657Z,73.68
2022-11-27T18:04:01.041Z,73.22
2022-11-27T18:06:30.624Z,73.33
2022-11-27T18:08:59.898Z,73.21
2022-11-27T18:11:29.864Z,73.38
2022-11-27T18:13:59.343Z,73.45
2022-11-27T18:16:30.391Z,73.89
2022-11-27T18:18:59.138Z,74.12
2022-11-27T18:21:27.335Z,74.16
2022-11-27T18:29:29.761Z,75.34
2022-11-27T18:31:56.849Z,75.66
2022-11-27T18:34:23.853Z,75.91
2022-11-27T18:36:50.983Z,75.95
2022-11-27T18:39:18.201Z,76.18
2022-11-27T18:41:45.308Z,76.54
2022-11-27T18:44:12.171Z,76.80
2022-11-27T18:46:39.645Z,77.56
2022-11-27T18:49:06.895Z,77.66
2022-11-27T18:51:33.910Z,78.22
2022-11-27T18:54:02.382Z,78.55
2022-11-27T18:56:30.930Z,78.85
2022-11-27T18:59:03.696Z,79.40
2022-11-27T19:01:40.945Z,80.06
2022-11-27T19:04:10.619Z,80.34
2022-11-27T19:06:39.295Z,80.91
2022-11-27T19:09:06.902Z,81.32
2022-11-27T19:11:35.153Z,81.74
2022-11-27T19:14:03.909Z,82.24
2022-11-27T19:16:34.425Z,82.49
2022-11-27T19:19:03.457Z,83.27
2022-11-27T19:21:32.734Z,82.76
2022-11-27T19:24:02.580Z,82.50
2022-11-27T19:26:33.251Z,82.23
2022-11-27T19:29:03.656Z,82.53
2022-11-27T19:31:33.461Z,82.94
2022-11-27T19:34:02.355Z,83.61
2022-11-27T19:36:31.340Z,83.86
2022-11-27T19:39:03.429Z,83.42
2022-11-27T19:41:31.282Z,82.26
2022-11-27T19:44:01.695Z,81.91
2022-11-27T19:46:31.669Z,82.06
2022-11-27T19:49:04.792Z,82.52
2022-11-27T19:51:35.123Z,82.23
2022-11-27T19:54:09.675Z,82.38
2022-11-27T19:56:40.419Z,82.49
2022-11-27T19:59:08.721Z,82.39
2022-11-27T20:01:37.772Z,82.99
2022-11-27T20:04:05.672Z,82.75
2022-11-27T20:06:32.779Z,82.89
2022-11-27T20:09:02.240Z,83.12
2022-11-27T20:11:34.542Z,83.04
2022-11-27T20:14:05.179Z,83.38
2022-11-27T20:16:33.503Z,83.46
2022-11-27T20:19:02.215Z,84.15
2022-11-27T20:21:29.177Z,83.85
2022-11-27T20:23:57.878Z,84.39
2022-11-27T20:26:27.288Z,84.45
2022-11-27T20:28:54.823Z,84.92
2022-11-27T20:31:25.035Z,85.06
2022-11-27T20:33:56.079Z,85.46
2022-11-27T20:36:24.899Z,85.51
2022-11-27T20:38:55.674Z,85.05
2022-11-27T20:41:24.202Z,85.22
2022-11-27T20:44:00.044Z,85.28
2022-11-27T20:46:29.295Z,85.40
2022-11-27T20:48:56.932Z,85.47
2022-11-27T20:51:28.566Z,85.50
2022-11-27T20:53:57.676Z,85.44
2022-11-27T20:56:25.671Z,85.38
2022-11-27T20:58:53.935Z,85.50
2022-11-27T21:01:26.336Z,85.63
2022-11-27T21:03:55.716Z,85.56
2022-11-27T21:06:27.254Z,85.78
2022-11-27T21:08:55.317Z,85.87
2022-11-27T21:11:25.829Z,85.95
2022-11-27T21:13:58.353Z,85.95
2022-11-27T21:16:27.704Z,86.07
2022-11-27T21:18:56.713Z,86.19
2022-11-27T21:21:24.085Z,86.43
2022-11-27T21:23:51.442Z,86.58
2022-11-27T21:26:18.917Z,86.53
2022-11-27T21:28:46.664Z,86.34
2022-11-27T21:31:17.303Z,86.61
2022-11-27T21:33:49.784Z,86.82
2022-11-27T21:36:17.759Z,87.30
2022-11-27T21:38:45.808Z,87.15
2022-11-27T21:41:14.081Z,87.09
2022-11-27T21:43:41.492Z,87.40
2022-11-27T21:46:17.856Z,87.37
2022-11-27T21:48:49.998Z,87.94
2022-11-27T21:51:21.069Z,88.08
2022-11-27T21:53:51.358Z,88.24
2022-11-27T21:56:20.904Z,87.96
2022-11-27T21:58:49.645Z,88.09
2022-11-27T22:01:22.105Z,88.16
2022-11-27T22:03:54.953Z,88.04
2022-11-27T22:06:24.943Z,88.17
2022-11-27T22:08:54.957Z,88.33
2022-11-27T22:11:24.776Z,88.64
2022-11-27T22:13:52.383Z,88.72
2022-11-27T22:16:25.904Z,88.71
2022-11-27T22:19:04.842Z,88.72
2022-11-27T22:21:33.234Z,88.76
2022-11-27T22:24:02.186Z,88.84
2022-11-27T22:26:29.564Z,89.02
2022-11-27T22:28:58.721Z,89.18
2022-11-27T22:31:31.209Z,89.50
2022-11-27T22:33:58.975Z,89.96
2022-11-27T22:36:30.726Z,89.82
2022-11-27T22:39:00.774Z,90.12
2022-11-27T22:41:29.676Z,89.76
2022-11-27T22:44:00.320Z,89.63
2022-11-27T22:46:35.513Z,89.62
2022-11-27T22:49:05.870Z,89.62
2022-11-27T22:51:35.713Z,89.76
2022-11-27T22:54:04.478Z,89.90
2022-11-27T22:56:33.872Z,89.63
2022-11-27T22:59:30.601Z,89.72
2022-11-27T23:01:49.812Z,89.64
2022-11-27T23:04:16.968Z,89.68
2022-11-27T23:06:48.608Z,89.76
2022-11-27T23:09:18.175Z,89.54
2022-11-27T23:11:45.438Z,89.74
2022-11-27T23:14:12.727Z,89.53
2022-11-27T23:16:39.761Z,89.30
2022-11-27T23:19:06.990Z,89.63
2022-11-27T23:21:37.415Z,89.60
2022-11-27T23:24:05.890Z,89.76
2022-11-27T23:26:32.945Z,89.68
2022-11-27T23:29:00.005Z,89.55
2022-11-27T23:31:31.512Z,89.41
2022-11-27T23:34:01.961Z,89.49
2022-11-27T23:36:31.457Z,89.24
2022-11-27T23:39:02.496Z,89.25
2022-11-27T23:41:30.006Z,89.28
2022-11-27T23:43:58.135Z,89.78
2022-11-27T23:46:27.876Z,89.97
2022-11-27T23:48:57.461Z,89.99
2022-11-27T23:51:27.912Z,90.02
2022-11-27T23:53:55.182Z,90.20
2022-11-27T23:56:33.758Z,90.11
2022-11-27T23:59:07.203Z,89.91
